MMZH/ZIH METAR and TAF weather

Enter ICAO airport designator
Station Type Date Time Source
MMZH METAR 2023/10/01 01:40 UTC NOAA

MMZH 010140Z 00000KT 7SM BKN250 30/23 A2980 RMK 8/002 HZY


Station Type Date Time Source
MMZH Decoded METAR 2023/10/01 01:40 UTC NOAA

Ixtapa-Zihuatanejo, Mexico (MMZH) 17-36N 101-28W
Sep 30, 2023 - 09:40 PM EDT / 2023.10.01 0140 UTC
Wind: Calm:0
Visibility: 7 mile(s):0
Sky conditions: mostly cloudy
Temperature: 86 F (30 C)
Heat index: 93.4 F (34.1 C):1
Dew Point: 73 F (23 C)
Relative Humidity: 66%
Pressure (altimeter): 29.8 in. Hg (1009 hPa)
ob: MMZH 010140Z 00000KT 7SM BKN250 30/23 A2980 RMK 8/002 HZY
cycle: 1

Station Type Date Time Source
MMZH TAF 2023/09/30 18:30 UTC NOAA

TAF MMZH 301620Z 3018/0118 24010KT P6SM SCT020 BKN250
TEMPO 3021/0101 VC TS SCT020CB
FM010100 04005KT P6SM SCT020 BKN090 BKN250
FM011700 24005KT P6SM SCT020 BKN100 BKN250

Example: see airport list